Aerbrava English version Versión de Aerbrava en Español Versió en Català d'Aerbrava
curve curve
Saturday, 24 de August de 2019
23:02 UTC
Sunrise: 05:09
Sunset: 18:33

AERONAUTICAL WEATHER

WEATHER INFORMATION

This section shows the meteorological information that is used in the practice of students in the pilot school at our center during training, so it may not be current and should be used at your own risk. AERBRAVA is not responsible for its use.

ACTUAL WEATHER

Servei Meteorològic de Catalunya sat24.com
LEGE 242230Z 21003KT CAVOK 23/20 Q1018
LEGE 242200Z 21003KT 9999 SCT050 23/20 Q1018
LEGE 242130Z 21004KT 9999 SCT050 23/20 Q1018
LEGE 242100Z 21004KT 9999 SCT080 23/20 Q1018
LEGE 242030Z 21003KT 9999 FEW040 SCT090 24/20 Q1018
LEGE 242000Z 22003KT 190V280 9999 FEW040 BKN090 24/20 Q1018
LEGE 241930Z 20005KT 9999 FEW040 BKN090 25/20 Q1018
TAF LEGE 241700Z 2418/2518 18008KT 9999 FEW040 TX33/2513Z TN18/2506Z   BECMG 2421/2423 VRB03KT   BECMG 2510/2512 17010KT
National Weather service
logo About us | Site map | Privacy | Contact | © 2019 AERBRAVA, SCP